Time;durP1;ratioP1;P1;durP2;ratioP2;P2;SDS_P1;SDS_P2;PMS_P1;PMS_P2;Temp;Humidity;BMP_temperature;BMP_pressure;BME280_temperature;BME280_humidity;BME280_pressure;Samples;Min_cycle;Max_cycle;Signal;HPM_P1;HPM_P2
2022/01/07 00:01:13;;;;;;;0.98;0.47;;;9.00;76.70;;;;;;4954470;28;20155;-75
2022/01/07 00:03:39;;;;;;;1.60;0.75;;;9.10;76.90;;;;;;4953030;28;20476;-75
2022/01/07 00:06:04;;;;;;;2.00;0.60;;;9.10;77.00;;;;;;4952758;28;20027;-75
2022/01/07 00:08:30;;;;;;;2.13;0.40;;;9.10;76.80;;;;;;4951875;28;20054;-76
2022/01/07 00:10:56;;;;;;;2.15;0.63;;;9.10;76.70;;;;;;4956481;28;20516;-75
2022/01/07 00:13:22;;;;;;;2.35;0.47;;;9.20;77.10;;;;;;4954583;28;20031;-75
2022/01/07 00:15:49;;;;;;;2.30;0.68;;;9.10;77.10;;;;;;4953034;28;20023;-75
2022/01/07 00:18:14;;;;;;;2.33;0.90;;;9.10;77.50;;;;;;4949264;28;20034;-76
2022/01/07 00:20:41;;;;;;;3.25;1.15;;;9.20;77.20;;;;;;4980611;28;20020;-76
2022/01/07 00:23:07;;;;;;;1.65;0.65;;;9.10;77.60;;;;;;4956242;28;20341;-76
2022/01/07 00:25:33;;;;;;;1.55;0.60;;;9.20;77.50;;;;;;4954446;28;20031;-77
2022/01/07 00:27:58;;;;;;;2.13;0.60;;;9.20;77.40;;;;;;4954148;28;20130;-76
2022/01/07 00:30:24;;;;;;;2.40;0.85;;;9.30;77.60;;;;;;4954531;28;20026;-77
2022/01/07 00:32:50;;;;;;;2.65;0.70;;;9.20;77.90;;;;;;4951106;28;20448;-77
2022/01/07 00:35:18;;;;;;;1.88;0.60;;;9.20;78.60;;;;;;4955019;28;20027;-77
2022/01/07 00:37:44;;;;;;;1.63;0.50;;;9.20;78.00;;;;;;4955019;28;20054;-77
2022/01/07 00:40:14;;;;;;;2.03;0.60;;;9.20;78.00;;;;;;4953214;28;20031;-77
2022/01/07 00:42:39;;;;;;;1.92;0.68;;;9.30;78.10;;;;;;4953925;28;20023;-77
2022/01/07 00:45:06;;;;;;;1.05;0.50;;;9.20;77.70;;;;;;4953113;28;20083;-77
2022/01/07 00:47:32;;;;;;;3.58;0.73;;;9.20;78.30;;;;;;4951183;28;20049;-76
2022/01/07 00:49:58;;;;;;;2.70;0.70;;;9.20;78.10;;;;;;4956034;28;20034;-77
2022/01/07 00:52:24;;;;;;;2.85;0.50;;;9.20;77.90;;;;;;4952846;28;20024;-77
2022/01/07 00:54:50;;;;;;;1.80;0.60;;;9.20;78.60;;;;;;4954031;28;20084;-77
2022/01/07 00:57:16;;;;;;;2.00;0.50;;;9.20;78.40;;;;;;4953823;28;20027;-77
2022/01/07 00:59:44;;;;;;;1.67;0.63;;;9.30;78.60;;;;;;4950195;28;20031;-78
2022/01/07 01:02:10;;;;;;;2.25;0.60;;;9.20;79.30;;;;;;4967065;28;20442;-77
2022/01/07 01:04:36;;;;;;;1.45;0.50;;;9.20;79.30;;;;;;4954159;28;20028;-77
2022/01/07 01:07:02;;;;;;;3.33;0.60;;;9.10;78.60;;;;;;4954079;28;20487;-77
2022/01/07 01:09:28;;;;;;;1.77;0.70;;;9.20;79.00;;;;;;4954173;28;20035;-76
2022/01/07 01:11:54;;;;;;;1.52;0.50;;;9.20;78.80;;;;;;4950624;28;20050;-76
2022/01/07 01:14:19;;;;;;;2.22;0.60;;;9.20;78.10;;;;;;4953882;28;20035;-76
2022/01/07 01:16:47;;;;;;;1.88;0.68;;;9.10;78.60;;;;;;4954777;28;20469;-77
2022/01/07 01:19:13;;;;;;;4.38;0.70;;;9.10;79.00;;;;;;4953921;28;20039;-77
2022/01/07 01:21:38;;;;;;;2.08;0.70;;;9.20;79.30;;;;;;4953844;28;20016;-77
2022/01/07 01:24:05;;;;;;;2.90;0.68;;;9.10;79.00;;;;;;4952462;28;20461;-76
2022/01/07 01:26:30;;;;;;;2.63;0.70;;;9.10;79.40;;;;;;4950773;28;20123;-76
2022/01/07 01:28:56;;;;;;;2.17;0.60;;;9.10;79.20;;;;;;4986615;28;20545;-76
2022/01/07 01:31:22;;;;;;;1.75;0.60;;;9.10;79.20;;;;;;4953520;28;20107;-76
2022/01/07 01:33:48;;;;;;;3.53;0.70;;;9.10;79.40;;;;;;4953709;28;20492;-76
2022/01/07 01:36:14;;;;;;;3.10;0.55;;;9.10;79.50;;;;;;4953572;28;20030;-76
2022/01/07 01:38:41;;;;;;;2.42;0.63;;;9.10;78.90;;;;;;4949536;28;20111;-76
2022/01/07 01:41:08;;;;;;;4.85;1.55;;;9.10;79.30;;;;;;4955559;28;20111;-76
2022/01/07 01:43:34;;;;;;;4.78;1.00;;;9.20;79.10;;;;;;4952443;28;20122;-77
2022/01/07 01:46:00;;;;;;;1.85;0.60;;;9.10;79.20;;;;;;4953365;28;20023;-77
2022/01/07 01:48:26;;;;;;;2.85;0.68;;;9.10;79.50;;;;;;4953637;28;20100;-77
2022/01/07 01:50:54;;;;;;;3.80;0.98;;;9.20;79.80;;;;;;4950452;28;20024;-77
2022/01/07 01:53:20;;;;;;;4.50;0.95;;;9.10;79.30;;;;;;4953198;28;20027;-76
2022/01/07 01:55:46;;;;;;;3.08;0.68;;;9.10;80.10;;;;;;4954009;28;20088;-77
2022/01/07 01:58:12;;;;;;;2.38;0.60;;;9.10;80.20;;;;;;4953394;28;20407;-77
2022/01/07 02:00:38;;;;;;;3.97;0.70;;;9.00;80.00;;;;;;4953241;28;20023;-76
2022/01/07 02:03:05;;;;;;;2.58;0.80;;;9.10;80.30;;;;;;4951891;28;20050;-76
2022/01/07 02:05:31;;;;;;;3.35;0.52;;;9.10;80.60;;;;;;4950576;28;20511;-77
2022/01/07 02:07:57;;;;;;;2.15;0.70;;;9.10;80.60;;;;;;4955220;28;20032;-77
2022/01/07 02:10:22;;;;;;;2.90;0.60;;;9.10;80.60;;;;;;4953498;28;20035;-77
2022/01/07 02:12:48;;;;;;;2.80;0.75;;;9.10;80.40;;;;;;4955526;28;20552;-76
2022/01/07 02:15:16;;;;;;;1.73;0.52;;;9.10;80.60;;;;;;4955726;28;20450;-77
2022/01/07 02:17:44;;;;;;;2.83;0.63;;;9.10;80.70;;;;;;4934997;28;20077;-77
2022/01/07 02:20:12;;;;;;;4.00;0.50;;;9.10;80.70;;;;;;4995706;28;20050;-76
2022/01/07 02:22:37;;;;;;;2.92;0.52;;;9.10;80.90;;;;;;4956176;28;20522;-77
2022/01/07 02:25:04;;;;;;;3.95;0.93;;;9.10;80.70;;;;;;4955454;28;20066;-76
2022/01/07 02:27:34;;;;;;;3.58;0.65;;;9.00;81.00;;;;;;4955652;28;20019;-77
2022/01/07 02:30:00;;;;;;;2.25;0.70;;;9.00;80.40;;;;;;4954028;28;20031;-77
2022/01/07 02:32:25;;;;;;;3.03;0.80;;;9.00;81.50;;;;;;4953980;28;20023;-77
2022/01/07 02:34:51;;;;;;;3.10;0.70;;;9.00;81.20;;;;;;4955384;28;20069;-77
2022/01/07 02:37:17;;;;;;;3.33;0.90;;;9.00;81.20;;;;;;4954768;28;20400;-77
2022/01/07 02:39:45;;;;;;;2.92;0.80;;;9.00;81.00;;;;;;4955757;28;20027;-77
2022/01/07 02:42:11;;;;;;;3.10;0.70;;;8.90;81.20;;;;;;4954361;28;20062;-76
2022/01/07 02:44:37;;;;;;;3.25;1.40;;;9.00;81.00;;;;;;4952144;28;20408;-77
2022/01/07 02:47:03;;;;;;;1.95;0.73;;;8.90;81.50;;;;;;4967906;28;20076;-77
2022/01/07 02:49:29;;;;;;;3.72;1.00;;;8.90;81.70;;;;;;4957189;28;20039;-77
2022/01/07 02:51:54;;;;;;;3.40;0.80;;;8.90;81.30;;;;;;4954655;28;20028;-77
2022/01/07 02:54:20;;;;;;;3.53;1.00;;;8.90;81.50;;;;;;4955773;28;20555;-77
2022/01/07 02:56:46;;;;;;;3.30;0.75;;;8.90;82.10;;;;;;4950523;28;20047;-77
2022/01/07 02:59:12;;;;;;;4.45;0.98;;;8.90;81.80;;;;;;4957660;28;20042;-77
2022/01/07 03:01:39;;;;;;;3.88;0.77;;;8.90;81.20;;;;;;4955970;28;20118;-77
2022/01/07 03:04:05;;;;;;;1.75;0.70;;;8.90;81.60;;;;;;4955999;28;20036;-77
2022/01/07 03:06:31;;;;;;;3.50;0.60;;;8.90;81.70;;;;;;4955883;28;20130;-77
2022/01/07 03:08:57;;;;;;;2.97;0.77;;;9.00;81.80;;;;;;4953040;28;20118;-76
2022/01/07 03:11:23;;;;;;;2.00;0.75;;;9.00;82.10;;;;;;4954658;28;20054;-77
2022/01/07 03:13:48;;;;;;;3.58;0.82;;;9.00;81.60;;;;;;4965072;28;20457;-77
2022/01/07 03:16:14;;;;;;;2.95;0.90;;;9.10;81.90;;;;;;4958912;28;20031;-77
2022/01/07 03:18:40;;;;;;;2.33;0.88;;;9.10;81.80;;;;;;4955612;28;20059;-77
2022/01/07 03:21:06;;;;;;;3.58;0.77;;;9.10;81.90;;;;;;4953259;28;20019;-77
2022/01/07 03:23:33;;;;;;;3.25;0.60;;;9.10;81.90;;;;;;4951171;28;20173;-76
2022/01/07 03:25:59;;;;;;;3.13;0.82;;;9.10;81.80;;;;;;4957491;28;20024;-77
2022/01/07 03:28:25;;;;;;;2.20;0.80;;;9.10;81.90;;;;;;4955513;28;20407;-76
2022/01/07 03:30:51;;;;;;;5.05;0.65;;;9.10;81.80;;;;;;4955602;28;20608;-76
2022/01/07 03:33:18;;;;;;;2.42;0.80;;;9.10;81.90;;;;;;4955480;28;20407;-77
2022/01/07 03:35:43;;;;;;;3.00;0.80;;;9.10;81.50;;;;;;4950017;28;20514;-77
2022/01/07 03:38:09;;;;;;;4.65;1.02;;;9.10;82.00;;;;;;4950057;28;20066;-77
2022/01/07 03:40:35;;;;;;;3.30;1.15;;;9.20;82.60;;;;;;4953882;28;20034;-76
2022/01/07 03:43:02;;;;;;;3.47;0.80;;;9.10;81.90;;;;;;4956976;28;20029;-77
2022/01/07 03:45:28;;;;;;;2.00;0.75;;;9.10;81.90;;;;;;4963093;28;20023;-77
2022/01/07 03:47:54;;;;;;;4.07;0.90;;;9.20;82.00;;;;;;4952333;28;20054;-77
2022/01/07 03:50:25;;;;;;;4.40;0.93;;;9.20;82.60;;;;;;4954890;28;20027;-77
2022/01/07 03:52:52;;;;;;;3.60;0.90;;;9.20;82.20;;;;;;4955220;28;20027;-77
2022/01/07 03:55:21;;;;;;;4.63;0.68;;;9.10;82.20;;;;;;4955061;28;20031;-77
2022/01/07 03:57:47;;;;;;;5.20;0.90;;;9.10;81.80;;;;;;4955053;28;20031;-77
2022/01/07 04:00:20;;;;;;;3.45;0.80;;;9.20;82.60;;;;;;4953345;28;20058;-76
2022/01/07 04:02:46;;;;;;;2.53;0.85;;;9.10;82.30;;;;;;4949236;28;20016;-77
2022/01/07 04:05:13;;;;;;;2.80;0.80;;;9.10;82.50;;;;;;4956752;28;20043;-77
2022/01/07 04:07:39;;;;;;;3.70;0.70;;;9.10;82.50;;;;;;4955127;28;20020;-77
2022/01/07 04:10:06;;;;;;;3.28;0.90;;;9.10;82.60;;;;;;4954846;28;20092;-77
2022/01/07 04:12:31;;;;;;;4.80;0.98;;;9.10;82.50;;;;;;4953406;28;20058;-77
2022/01/07 04:15:16;;;;;;;1.65;0.50;;;9.10;82.50;;;;;;4952670;28;20484;-76
2022/01/07 04:17:45;;;;;;;3.03;0.70;;;9.00;82.60;;;;;;4935750;28;20028;-76
2022/01/07 04:20:14;;;;;;;5.50;0.65;;;9.00;82.00;;;;;;4963892;28;20041;-76
2022/01/07 04:22:41;;;;;;;3.33;0.77;;;9.00;82.10;;;;;;4953628;28;20031;-76
2022/01/07 04:25:09;;;;;;;2.55;0.60;;;9.00;82.00;;;;;;4954796;28;20035;-76
2022/01/07 04:27:35;;;;;;;2.63;0.80;;;9.00;81.70;;;;;;4954609;28;20043;-76
2022/01/07 04:30:02;;;;;;;2.55;0.80;;;9.00;81.80;;;;;;4952952;28;20039;-76
2022/01/07 04:32:27;;;;;;;3.50;0.50;;;9.00;82.00;;;;;;4952266;28;20050;-76
2022/01/07 04:34:53;;;;;;;4.95;1.02;;;9.00;81.70;;;;;;4955948;28;20427;-76
2022/01/07 04:37:19;;;;;;;3.35;0.60;;;9.00;81.70;;;;;;4954380;28;20065;-76
2022/01/07 04:39:45;;;;;;;4.45;0.93;;;9.00;81.40;;;;;;4954354;28;20024;-76
2022/01/07 04:42:11;;;;;;;2.55;0.60;;;9.00;81.40;;;;;;4954003;28;20023;-76
2022/01/07 04:44:40;;;;;;;3.72;0.60;;;8.90;81.40;;;;;;4950708;28;20519;-76
2022/01/07 04:47:09;;;;;;;3.53;0.68;;;8.90;81.30;;;;;;4956179;28;20034;-76
2022/01/07 04:49:35;;;;;;;3.65;0.65;;;8.80;81.50;;;;;;4953899;28;20054;-76
2022/01/07 04:52:03;;;;;;;5.45;0.68;;;8.80;81.20;;;;;;4952991;28;20472;-76
2022/01/07 04:54:29;;;;;;;3.70;0.80;;;8.80;81.40;;;;;;4954278;28;20034;-76
2022/01/07 04:56:54;;;;;;;4.18;0.70;;;8.70;81.60;;;;;;4951636;28;20015;-76
2022/01/07 04:59:20;;;;;;;3.90;0.70;;;8.70;81.20;;;;;;4953528;28;20023;-76
2022/01/07 05:01:47;;;;;;;5.88;0.77;;;8.70;81.30;;;;;;4955267;28;20038;-76
2022/01/07 05:04:13;;;;;;;3.03;0.50;;;8.70;81.60;;;;;;4952681;28;20109;-76
2022/01/07 05:06:45;;;;;;;5.07;0.70;;;8.70;81.40;;;;;;4954073;28;20552;-76
2022/01/07 05:09:20;;;;;;;1.70;0.40;;;8.70;81.10;;;;;;4953576;28;20100;-76
2022/01/07 05:11:48;;;;;;;4.60;0.60;;;8.60;81.10;;;;;;4935575;28;20117;-76
2022/01/07 05:14:15;;;;;;;2.40;0.40;;;8.60;81.50;;;;;;4954555;28;20028;-75
2022/01/07 05:16:41;;;;;;;4.40;0.73;;;8.60;81.60;;;;;;4953217;28;20059;-75
2022/01/07 05:19:07;;;;;;;3.13;0.60;;;8.60;81.50;;;;;;4953713;28;20055;-76
2022/01/07 05:21:32;;;;;;;2.97;0.60;;;8.60;81.60;;;;;;4953304;28;20566;-76
2022/01/07 05:23:58;;;;;;;2.10;0.43;;;8.50;81.30;;;;;;4952573;28;20035;-76
2022/01/07 05:26:25;;;;;;;1.92;0.50;;;8.50;81.20;;;;;;4952405;28;20137;-76
2022/01/07 05:28:51;;;;;;;2.85;0.65;;;8.50;81.30;;;;;;4955521;28;20507;-76
2022/01/07 05:31:24;;;;;;;1.52;0.60;;;8.50;81.10;;;;;;4953870;28;20031;-76
2022/01/07 05:33:51;;;;;;;1.80;0.50;;;8.40;81.40;;;;;;4952315;28;20027;-76
2022/01/07 05:36:18;;;;;;;2.50;0.45;;;8.50;81.30;;;;;;4953607;28;20069;-76
2022/01/07 05:38:43;;;;;;;2.22;0.30;;;8.50;81.40;;;;;;4949592;28;20161;-79
2022/01/07 05:41:09;;;;;;;4.15;0.50;;;8.40;81.10;;;;;;4955530;28;20106;-77
2022/01/07 05:43:35;;;;;;;2.13;0.55;;;8.40;81.20;;;;;;4953761;28;20031;-77
2022/01/07 05:46:01;;;;;;;4.40;0.57;;;8.40;81.10;;;;;;4952776;28;20058;-77
2022/01/07 05:48:26;;;;;;;2.70;0.52;;;8.30;81.10;;;;;;4953065;28;20085;-77
2022/01/07 05:50:52;;;;;;;2.47;0.50;;;8.40;81.50;;;;;;4949300;28;20020;-77
2022/01/07 05:53:17;;;;;;;2.75;0.38;;;8.40;81.10;;;;;;4953509;28;20058;-77
2022/01/07 05:55:43;;;;;;;4.53;0.52;;;8.40;81.50;;;;;;4954135;28;20110;-77
2022/01/07 05:58:09;;;;;;;2.67;0.47;;;8.40;81.20;;;;;;4953466;28;20079;-77
2022/01/07 06:00:34;;;;;;;2.58;0.60;;;8.40;81.10;;;;;;4953308;28;20119;-77
2022/01/07 06:03:00;;;;;;;1.90;0.57;;;8.50;81.30;;;;;;4951373;28;20106;-77
2022/01/07 06:05:26;;;;;;;2.72;0.52;;;8.40;81.10;;;;;;4951287;28;20085;-76
2022/01/07 06:07:52;;;;;;;4.22;0.73;;;8.30;80.70;;;;;;4954959;28;20039;-77
2022/01/07 06:10:18;;;;;;;3.60;0.80;;;8.30;81.10;;;;;;4953423;28;20077;-76
2022/01/07 06:12:43;;;;;;;3.00;0.68;;;8.40;81.00;;;;;;4952838;28;20078;-77
2022/01/07 06:15:09;;;;;;;1.92;0.30;;;8.30;81.00;;;;;;4952357;28;20077;-77
2022/01/07 06:17:36;;;;;;;3.17;0.45;;;8.30;81.20;;;;;;4949375;28;20093;-77
2022/01/07 06:20:02;;;;;;;3.25;0.60;;;8.30;81.00;;;;;;4955232;28;20035;-76
2022/01/07 06:22:28;;;;;;;3.15;0.68;;;8.30;81.10;;;;;;4951961;28;20092;-77
2022/01/07 06:24:54;;;;;;;4.53;0.60;;;8.30;81.10;;;;;;4952905;28;20488;-77
2022/01/07 06:27:19;;;;;;;2.42;0.57;;;8.30;81.10;;;;;;4953058;28;20031;-77
2022/01/07 06:29:46;;;;;;;2.28;0.57;;;8.30;81.10;;;;;;4941407;28;20089;-77
2022/01/07 06:32:11;;;;;;;2.50;0.50;;;8.30;81.20;;;;;;4953996;28;20526;-77
2022/01/07 06:34:37;;;;;;;2.40;0.45;;;8.30;80.90;;;;;;4951454;28;20039;-77
2022/01/07 06:37:03;;;;;;;3.42;1.02;;;8.20;81.00;;;;;;4952892;28;20034;-77
2022/01/07 06:39:29;;;;;;;5.88;1.23;;;8.20;81.30;;;;;;4952741;28;20602;-78
2022/01/07 06:41:57;;;;;;;3.00;0.75;;;8.20;81.30;;;;;;4949069;28;20106;-78
2022/01/07 06:44:23;;;;;;;4.63;0.73;;;8.20;81.10;;;;;;4951834;28;20038;-78
2022/01/07 06:46:49;;;;;;;4.07;0.40;;;8.20;81.30;;;;;;4953838;28;20027;-78
2022/01/07 06:49:15;;;;;;;5.68;1.27;;;8.30;81.50;;;;;;4950564;28;20043;-78
2022/01/07 06:51:43;;;;;;;6.63;1.52;;;8.30;81.30;;;;;;4951752;28;20024;-78
2022/01/07 06:54:11;;;;;;;4.72;1.20;;;8.30;81.20;;;;;;4952045;28;20023;-78
2022/01/07 06:56:41;;;;;;;3.75;0.90;;;8.30;81.20;;;;;;4949624;28;20035;-78
2022/01/07 06:59:06;;;;;;;3.00;0.73;;;8.30;80.60;;;;;;4956893;28;20031;-78
2022/01/07 07:01:32;;;;;;;5.75;0.80;;;8.30;80.70;;;;;;4954261;28;20442;-78
2022/01/07 07:03:57;;;;;;;1.83;0.60;;;8.30;80.80;;;;;;4955957;28;20114;-78
2022/01/07 07:06:23;;;;;;;4.63;0.70;;;8.40;81.20;;;;;;4955907;28;20023;-78
2022/01/07 07:08:49;;;;;;;3.30;0.50;;;8.40;81.00;;;;;;4952320;28;20067;-75
2022/01/07 07:11:14;;;;;;;2.53;0.60;;;8.50;80.80;;;;;;4956122;28;20093;-78
2022/01/07 07:13:40;;;;;;;1.38;0.50;;;8.50;81.20;;;;;;4955002;28;20459;-78
2022/01/07 07:16:06;;;;;;;3.05;0.70;;;8.40;80.80;;;;;;4955416;28;20043;-77
2022/01/07 07:18:31;;;;;;;5.03;1.20;;;8.50;80.90;;;;;;4956146;28;20035;-78
2022/01/07 07:20:58;;;;;;;3.65;1.10;;;8.50;80.60;;;;;;4953349;28;20015;-78
2022/01/07 07:23:25;;;;;;;3.67;0.77;;;8.50;80.60;;;;;;4953955;28;20039;-78
2022/01/07 07:25:51;;;;;;;2.17;0.60;;;8.50;80.30;;;;;;4957204;28;20125;-78
2022/01/07 07:28:18;;;;;;;3.55;0.50;;;8.50;80.60;;;;;;4955285;28;20085;-78
2022/01/07 07:30:44;;;;;;;4.68;0.75;;;8.50;80.80;;;;;;4955193;28;20030;-78
2022/01/07 07:38:32;;;;;;;6.50;0.85;;;8.50;80.50;;;;;;4952665;28;20034;-78
2022/01/07 07:40:58;;;;;;;2.83;0.70;;;8.40;80.40;;;;;;4957203;28;20035;-78
2022/01/07 07:43:23;;;;;;;2.75;0.77;;;8.40;80.70;;;;;;4954937;28;20024;-78
2022/01/07 07:45:49;;;;;;;4.03;0.70;;;8.40;80.80;;;;;;4956839;28;20062;-78
2022/01/07 07:48:14;;;;;;;8.25;1.90;;;8.40;80.70;;;;;;4956034;28;20035;-78
2022/01/07 07:50:40;;;;;;;3.75;1.00;;;8.50;81.00;;;;;;4951957;28;20080;-77
2022/01/07 07:53:06;;;;;;;2.78;0.80;;;8.50;80.70;;;;;;4952051;28;20157;-76
2022/01/07 07:55:32;;;;;;;5.05;0.90;;;8.50;80.60;;;;;;4950937;28;20037;-76
2022/01/07 07:57:57;;;;;;;3.33;0.75;;;8.50;80.30;;;;;;4950990;28;20057;-76
2022/01/07 08:00:23;;;;;;;3.17;0.60;;;8.50;80.60;;;;;;4951136;28;20106;-76
2022/01/07 08:02:49;;;;;;;3.30;0.60;;;8.50;80.30;;;;;;4951578;28;20543;-77
2022/01/07 08:05:15;;;;;;;5.20;0.70;;;8.50;80.10;;;;;;4950247;28;20060;-76
2022/01/07 08:07:40;;;;;;;3.70;0.60;;;8.50;81.00;;;;;;4950006;28;20035;-77
2022/01/07 08:10:07;;;;;;;2.47;0.57;;;8.50;80.40;;;;;;4949317;28;20423;-76
2022/01/07 08:12:52;;;;;;;2.78;0.65;;;8.50;79.50;;;;;;4950310;28;20054;-78
2022/01/07 08:18:02;;;;;;;3.15;0.65;;;8.40;79.40;;;;;;4950194;28;20147;-77
2022/01/07 08:20:28;;;;;;;2.90;0.57;;;8.40;79.40;;;;;;4953031;28;20539;-77
2022/01/07 08:22:55;;;;;;;2.92;0.80;;;8.40;79.70;;;;;;4951718;28;20039;-78
2022/01/07 08:25:21;;;;;;;4.45;0.80;;;8.40;79.50;;;;;;4951990;28;20035;-79
2022/01/07 08:27:46;;;;;;;1.98;0.55;;;8.30;79.30;;;;;;4951899;28;20399;-78
2022/01/07 08:30:19;;;;;;;2.47;0.50;;;8.40;79.90;;;;;;4954198;28;20498;-78
2022/01/07 08:35:29;;;;;;;3.65;0.80;;;8.70;79.60;;;;;;4950642;28;20038;-78
2022/01/07 08:37:55;;;;;;;2.30;0.60;;;8.60;79.20;;;;;;4955364;28;20408;-78
2022/01/07 08:40:21;;;;;;;2.08;0.50;;;8.80;80.10;;;;;;4953561;28;20038;-78
2022/01/07 08:42:46;;;;;;;2.45;0.55;;;9.40;81.40;;;;;;4952965;28;20027;-77
2022/01/07 08:45:12;;;;;;;3.05;0.60;;;10.00;81.00;;;;;;4963646;28;20031;-77
2022/01/07 08:47:38;;;;;;;1.95;0.65;;;10.50;80.00;;;;;;4949878;28;20078;-76
2022/01/07 08:50:05;;;;;;;1.88;0.82;;;10.80;78.30;;;;;;4963866;28;20031;-77
2022/01/07 08:52:30;;;;;;;3.03;0.55;;;11.10;78.40;;;;;;4954269;28;20027;-76
2022/01/07 08:54:56;;;;;;;2.05;0.52;;;11.50;77.50;;;;;;4952180;28;20028;-76
2022/01/07 08:57:22;;;;;;;2.55;0.73;;;11.80;75.90;;;;;;4952695;28;20053;-76
2022/01/07 08:59:48;;;;;;;2.38;0.47;;;11.90;75.80;;;;;;4947701;28;20038;-76
2022/01/07 09:02:14;;;;;;;2.47;0.60;;;12.20;76.00;;;;;;4968220;28;20031;-77
2022/01/07 09:04:40;;;;;;;3.33;0.80;;;12.40;74.80;;;;;;4953441;28;20092;-76
2022/01/07 09:07:05;;;;;;;2.40;0.60;;;12.60;74.00;;;;;;4949730;28;20027;-76
2022/01/07 09:09:31;;;;;;;2.45;1.30;;;12.80;73.70;;;;;;4953671;28;20058;-75
2022/01/07 09:11:57;;;;;;;4.13;1.02;;;12.90;72.10;;;;;;4948731;28;20047;-76
2022/01/07 09:14:22;;;;;;;2.65;1.00;;;13.10;72.80;;;;;;4950177;28;20031;-76
2022/01/07 09:16:48;;;;;;;2.55;0.88;;;13.20;71.70;;;;;;4954579;28;20496;-76
2022/01/07 09:19:13;;;;;;;1.80;0.85;;;13.50;72.40;;;;;;4953334;28;20023;-77
2022/01/07 09:21:39;;;;;;;1.70;0.70;;;13.70;71.60;;;;;;4952121;28;20031;-77
2022/01/07 09:24:05;;;;;;;2.15;0.70;;;14.00;70.70;;;;;;4952179;28;20019;-77
2022/01/07 09:26:31;;;;;;;2.97;0.80;;;14.00;69.50;;;;;;4949581;28;20031;-76
2022/01/07 09:28:56;;;;;;;2.40;1.08;;;14.10;69.80;;;;;;4955211;28;20050;-76
2022/01/07 09:31:22;;;;;;;2.55;0.77;;;14.20;69.20;;;;;;4951237;28;20035;-77
2022/01/07 09:33:47;;;;;;;3.25;0.75;;;14.20;68.40;;;;;;4953356;28;20031;-77
2022/01/07 09:36:13;;;;;;;1.67;0.82;;;14.30;68.90;;;;;;4950559;28;20038;-76
2022/01/07 09:38:39;;;;;;;1.63;0.75;;;14.40;67.90;;;;;;4948812;28;20031;-77
2022/01/07 09:41:05;;;;;;;3.63;0.57;;;14.50;68.20;;;;;;4954482;28;20023;-76
2022/01/07 09:43:31;;;;;;;3.50;1.02;;;14.60;67.10;;;;;;4952096;28;20035;-76
2022/01/07 09:45:57;;;;;;;2.58;0.80;;;14.60;66.10;;;;;;4952023;28;20026;-76
2022/01/07 09:48:23;;;;;;;2.53;0.60;;;14.70;66.50;;;;;;4949761;28;20121;-76
2022/01/07 09:50:48;;;;;;;2.70;0.70;;;14.70;67.00;;;;;;4948852;28;20484;-76
2022/01/07 09:53:15;;;;;;;2.75;0.63;;;15.00;67.00;;;;;;4953455;28;20284;-77
2022/01/07 09:55:42;;;;;;;2.95;0.70;;;15.20;66.90;;;;;;4950992;28;20039;-74
2022/01/07 09:58:08;;;;;;;2.72;0.70;;;15.30;67.20;;;;;;4960254;28;20027;-76
2022/01/07 10:00:40;;;;;;;4.65;1.00;;;15.40;65.40;;;;;;4959955;28;20037;-76
2022/01/07 10:03:08;;;;;;;1.48;0.63;;;15.50;65.50;;;;;;4952145;28;20023;-76
2022/01/07 10:05:49;;;;;;;2.45;1.00;;;15.70;65.30;;;;;;4949731;28;20032;-76
2022/01/07 10:08:25;;;;;;;2.05;0.73;;;15.90;66.40;;;;;;4962110;28;20142;-76
2022/01/07 10:11:19;;;;;;;2.75;0.60;;;16.00;63.80;;;;;;4954014;28;20035;-77
2022/01/07 10:14:13;;;;;;;3.95;0.80;;;16.00;65.10;;;;;;4952687;28;20118;-63
2022/01/07 10:16:55;;;;;;;7.72;3.58;;;15.40;62.90;;;;;;4960753;28;20114;-64
2022/01/07 10:19:49;;;;;;;3.08;1.15;;;15.10;63.60;;;;;;4952418;28;20019;-61
2022/01/07 10:22:16;;;;;;;3.90;0.85;;;14.80;63.30;;;;;;4954300;28;20459;-63
2022/01/07 10:24:59;;;;;;;3.25;0.90;;;14.60;64.10;;;;;;4950849;28;20023;-63
2022/01/07 10:27:43;;;;;;;2.38;0.80;;;14.60;65.00;;;;;;4973422;28;20035;-63
2022/01/07 10:30:15;;;;;;;5.30;0.90;;;14.80;65.40;;;;;;4963155;28;20410;-64
2022/01/07 10:32:41;;;;;;;2.75;0.98;;;14.70;64.20;;;;;;4994443;28;20059;-64
2022/01/07 10:35:14;;;;;;;6.25;1.10;;;14.50;64.30;;;;;;4957369;28;20024;-64
2022/01/07 10:37:51;;;;;;;3.33;0.88;;;14.70;64.60;;;;;;4955920;28;20118;-64
2022/01/07 10:40:25;;;;;;;4.53;1.00;;;14.70;64.30;;;;;;4955700;28;20059;-64
2022/01/07 10:42:54;;;;;;;3.45;1.10;;;14.70;64.60;;;;;;4955873;28;20234;-64
2022/01/07 10:45:20;;;;;;;4.00;0.93;;;14.70;63.60;;;;;;4955424;28;20098;-66
2022/01/07 10:47:51;;;;;;;5.93;1.20;;;14.80;63.80;;;;;;4965728;28;20499;-67
2022/01/07 10:50:19;;;;;;;4.28;0.70;;;14.80;64.40;;;;;;4955761;28;20043;-66
2022/01/07 10:52:46;;;;;;;3.60;1.02;;;15.00;63.90;;;;;;4955903;28;20515;-66
2022/01/07 10:55:18;;;;;;;5.28;1.05;;;15.10;62.70;;;;;;4955453;28;20028;-67
2022/01/07 10:57:47;;;;;;;6.00;1.00;;;15.10;62.80;;;;;;4955479;28;20046;-67
2022/01/07 11:00:19;;;;;;;6.47;1.00;;;15.20;62.80;;;;;;4955177;28;20041;-67
2022/01/07 11:02:45;;;;;;;4.00;0.80;;;15.20;62.00;;;;;;4935057;28;20023;-67
2022/01/07 11:05:12;;;;;;;4.05;1.13;;;15.30;61.80;;;;;;4957256;28;20035;-75
2022/01/07 11:07:38;;;;;;;4.10;0.90;;;15.40;62.40;;;;;;4953685;28;20401;-69
2022/01/07 11:10:06;;;;;;;4.60;0.88;;;15.40;62.50;;;;;;4958291;28;20034;-75
2022/01/07 11:12:32;;;;;;;3.70;1.00;;;15.60;62.60;;;;;;4980385;28;20264;-75
2022/01/07 11:14:59;;;;;;;3.05;0.95;;;15.90;60.60;;;;;;4953093;28;20461;-75
2022/01/07 11:17:26;;;;;;;3.88;0.98;;;16.10;61.20;;;;;;4954025;28;20026;-73
2022/01/07 11:19:55;;;;;;;4.20;1.27;;;16.20;60.80;;;;;;4955941;28;20031;-76
2022/01/07 11:22:22;;;;;;;5.38;1.20;;;16.10;60.50;;;;;;4955124;28;20403;-78
2022/01/07 11:25:05;;;;;;;4.63;1.00;;;15.90;58.50;;;;;;4955208;28;20024;-75
2022/01/07 11:27:44;;;;;;;5.07;1.20;;;16.10;61.20;;;;;;4955393;28;20058;-75
2022/01/07 11:30:14;;;;;;;5.38;1.02;;;16.10;59.40;;;;;;4953420;28;20034;-75
2022/01/07 11:32:41;;;;;;;6.47;1.30;;;16.30;60.70;;;;;;4950996;28;20035;-73
2022/01/07 11:35:19;;;;;;;7.90;1.45;;;16.40;58.50;;;;;;4949045;28;20035;-74
2022/01/07 11:37:44;;;;;;;5.72;1.23;;;16.40;59.10;;;;;;4960788;28;20034;-74
2022/01/07 11:40:32;;;;;;;4.68;1.08;;;16.50;59.40;;;;;;4984958;28;20026;-73
2022/01/07 11:43:05;;;;;;;6.03;1.40;;;16.60;59.70;;;;;;4980058;28;20769;-72
2022/01/07 11:45:38;;;;;;;9.27;1.52;;;16.60;58.40;;;;;;4979996;28;20046;-72
2022/01/07 11:48:25;;;;;;;4.43;1.20;;;16.70;59.10;;;;;;4956086;28;20094;-77
2022/01/07 11:51:00;;;;;;;5.95;1.25;;;16.90;58.60;;;;;;4936618;28;20027;-76
2022/01/07 11:53:36;;;;;;;5.90;1.30;;;17.00;58.20;;;;;;4958786;28;20552;-76
2022/01/07 11:56:03;;;;;;;5.68;1.38;;;17.30;56.40;;;;;;4954348;28;20500;-76
2022/01/07 11:58:40;;;;;;;6.50;1.40;;;17.30;56.80;;;;;;4953697;28;20042;-76
2022/01/07 12:01:07;;;;;;;5.40;1.60;;;17.20;55.00;;;;;;4935748;29;20015;-76
2022/01/07 12:03:49;;;;;;;7.15;1.70;;;17.30;56.50;;;;;;4948283;28;20035;-76
2022/01/07 12:06:24;;;;;;;9.18;1.33;;;17.60;55.50;;;;;;4953129;28;20029;-76
2022/01/07 12:09:11;;;;;;;3.90;1.10;;;17.60;55.40;;;;;;4934111;28;20117;-71
2022/01/07 12:11:38;;;;;;;5.15;1.13;;;17.80;56.40;;;;;;5022077;28;20138;-63
2022/01/07 12:14:13;;;;;;;5.25;1.00;;;17.80;54.10;;;;;;4954063;28;20035;-64
2022/01/07 12:16:39;;;;;;;7.38;1.30;;;17.40;53.50;;;;;;4951261;28;20100;-73
2022/01/07 12:19:21;;;;;;;6.28;1.50;;;17.10;54.30;;;;;;4945822;28;20046;-72
2022/01/07 12:21:49;;;;;;;6.85;1.48;;;17.00;55.90;;;;;;4950627;28;20024;-72
2022/01/07 12:24:17;;;;;;;5.82;1.10;;;16.90;55.00;;;;;;4952344;28;20499;-72
2022/01/07 12:26:43;;;;;;;5.63;1.35;;;16.90;55.20;;;;;;4949290;28;20081;-72
2022/01/07 12:29:16;;;;;;;6.20;1.25;;;16.90;55.20;;;;;;4955230;28;20039;-72
2022/01/07 12:31:52;;;;;;;;;;;16.90;55.70;;;;;;4950766;28;20169;-72
2022/01/07 12:34:32;;;;;;;4.15;1.10;;;16.90;57.60;;;;;;4952664;28;19910;-72
2022/01/07 12:37:05;;;;;;;6.45;1.48;;;17.00;56.90;;;;;;4949052;28;20059;-72
2022/01/07 12:39:33;;;;;;;4.60;1.20;;;16.80;54.10;;;;;;4946423;28;20034;-71
2022/01/07 12:41:59;;;;;;;7.03;1.23;;;16.20;53.90;;;;;;4957857;28;20408;-73
2022/01/07 12:44:25;;;;;;;6.10;1.10;;;15.80;54.90;;;;;;4955601;28;20102;-72
2022/01/07 12:46:56;;;;;;;6.35;1.48;;;15.50;55.90;;;;;;4953757;28;20377;-72
2022/01/07 12:49:37;;;;;;;4.78;1.42;;;15.10;56.70;;;;;;4953287;28;20107;-72
2022/01/07 12:52:07;;;;;;;5.38;1.20;;;14.90;58.20;;;;;;4953715;28;20106;-69
2022/01/07 12:54:34;;;;;;;5.57;1.10;;;14.60;58.60;;;;;;4951480;28;20491;-69
2022/01/07 12:57:00;;;;;;;5.20;1.30;;;14.30;57.70;;;;;;4951097;28;20478;-70
2022/01/07 12:59:26;;;;;;;3.28;1.10;;;14.00;59.00;;;;;;4952198;28;20028;-71
2022/01/07 13:01:53;;;;;;;5.72;1.27;;;13.60;58.90;;;;;;4961833;28;20492;-71
2022/01/07 13:04:22;;;;;;;5.13;1.30;;;13.40;59.70;;;;;;4955411;28;20054;-71
2022/01/07 13:06:54;;;;;;;4.72;1.50;;;13.40;61.10;;;;;;4953235;28;20570;-70